sensor_id;sensor_type;location;lat;lon;timestamp;P1;durP1;ratioP1;P2;durP2;ratioP2
55031;SDS011;40928;51.076;7.950;2022-07-12T00:01:31;2.45;;;1.20;;
55031;SDS011;40928;51.076;7.950;2022-07-12T00:03:56;1.90;;;1.40;;
55031;SDS011;40928;51.076;7.950;2022-07-12T00:06:22;2.38;;;1.40;;
55031;SDS011;40928;51.076;7.950;2022-07-12T00:08:47;1.42;;;1.30;;
55031;SDS011;40928;51.076;7.950;2022-07-12T00:11:13;1.73;;;1.50;;
55031;SDS011;40928;51.076;7.950;2022-07-12T00:13:38;3.80;;;1.50;;
55031;SDS011;40928;51.076;7.950;2022-07-12T00:16:04;1.27;;;1.17;;
55031;SDS011;40928;51.076;7.950;2022-07-12T00:18:30;1.25;;;1.15;;
55031;SDS011;40928;51.076;7.950;2022-07-12T00:20:56;1.52;;;1.25;;
55031;SDS011;40928;51.076;7.950;2022-07-12T00:23:22;1.45;;;1.13;;
55031;SDS011;40928;51.076;7.950;2022-07-12T00:25:47;2.05;;;1.20;;
55031;SDS011;40928;51.076;7.950;2022-07-12T00:28:13;2.00;;;1.25;;
55031;SDS011;40928;51.076;7.950;2022-07-12T00:30:38;3.83;;;1.17;;
55031;SDS011;40928;51.076;7.950;2022-07-12T00:33:04;1.55;;;1.38;;
55031;SDS011;40928;51.076;7.950;2022-07-12T00:35:29;2.67;;;1.00;;
55031;SDS011;40928;51.076;7.950;2022-07-12T00:37:55;3.08;;;1.45;;
55031;SDS011;40928;51.076;7.950;2022-07-12T00:40:20;1.38;;;1.23;;
55031;SDS011;40928;51.076;7.950;2022-07-12T00:42:46;2.17;;;1.33;;
55031;SDS011;40928;51.076;7.950;2022-07-12T00:45:12;2.15;;;1.08;;
55031;SDS011;40928;51.076;7.950;2022-07-12T00:47:39;1.73;;;1.10;;
55031;SDS011;40928;51.076;7.950;2022-07-12T00:50:16;2.42;;;1.13;;
55031;SDS011;40928;51.076;7.950;2022-07-12T00:52:44;3.22;;;1.10;;
55031;SDS011;40928;51.076;7.950;2022-07-12T00:55:10;1.60;;;1.48;;
55031;SDS011;40928;51.076;7.950;2022-07-12T00:57:37;1.83;;;1.02;;
55031;SDS011;40928;51.076;7.950;2022-07-12T01:00:04;2.60;;;1.35;;
55031;SDS011;40928;51.076;7.950;2022-07-12T01:02:32;2.20;;;1.40;;
55031;SDS011;40928;51.076;7.950;2022-07-12T01:04:58;1.83;;;1.42;;
55031;SDS011;40928;51.076;7.950;2022-07-12T01:07:25;3.78;;;1.08;;
55031;SDS011;40928;51.076;7.950;2022-07-12T01:09:51;1.70;;;1.20;;
55031;SDS011;40928;51.076;7.950;2022-07-12T01:12:19;1.30;;;1.20;;
55031;SDS011;40928;51.076;7.950;2022-07-12T01:14:46;1.15;;;0.88;;
55031;SDS011;40928;51.076;7.950;2022-07-12T01:17:14;1.55;;;1.33;;
55031;SDS011;40928;51.076;7.950;2022-07-12T01:19:41;2.70;;;0.95;;
55031;SDS011;40928;51.076;7.950;2022-07-12T01:22:08;2.28;;;1.30;;
55031;SDS011;40928;51.076;7.950;2022-07-12T01:24:36;1.20;;;1.10;;
55031;SDS011;40928;51.076;7.950;2022-07-12T01:27:02;1.55;;;1.17;;
55031;SDS011;40928;51.076;7.950;2022-07-12T01:29:29;1.35;;;1.02;;
55031;SDS011;40928;51.076;7.950;2022-07-12T01:31:56;1.33;;;1.02;;
55031;SDS011;40928;51.076;7.950;2022-07-12T01:34:44;1.38;;;1.00;;
55031;SDS011;40928;51.076;7.950;2022-07-12T01:37:10;2.85;;;1.10;;
55031;SDS011;40928;51.076;7.950;2022-07-12T01:39:39;0.98;;;0.90;;
55031;SDS011;40928;51.076;7.950;2022-07-12T01:42:04;2.10;;;1.30;;
55031;SDS011;40928;51.076;7.950;2022-07-12T01:44:31;1.70;;;1.17;;
55031;SDS011;40928;51.076;7.950;2022-07-12T01:46:57;1.63;;;0.85;;
55031;SDS011;40928;51.076;7.950;2022-07-12T01:49:23;1.50;;;1.00;;
55031;SDS011;40928;51.076;7.950;2022-07-12T01:51:49;3.45;;;1.25;;
55031;SDS011;40928;51.076;7.950;2022-07-12T01:54:14;1.33;;;1.17;;
55031;SDS011;40928;51.076;7.950;2022-07-12T01:56:40;1.88;;;1.10;;
55031;SDS011;40928;51.076;7.950;2022-07-12T01:59:06;1.10;;;1.00;;
55031;SDS011;40928;51.076;7.950;2022-07-12T02:01:32;2.08;;;1.10;;
55031;SDS011;40928;51.076;7.950;2022-07-12T02:04:02;2.63;;;1.58;;
55031;SDS011;40928;51.076;7.950;2022-07-12T02:06:28;2.28;;;1.60;;
55031;SDS011;40928;51.076;7.950;2022-07-12T02:08:54;2.78;;;1.33;;
55031;SDS011;40928;51.076;7.950;2022-07-12T02:11:19;2.22;;;1.30;;
55031;SDS011;40928;51.076;7.950;2022-07-12T02:13:45;3.38;;;1.20;;
55031;SDS011;40928;51.076;7.950;2022-07-12T02:16:10;6.28;;;1.83;;
55031;SDS011;40928;51.076;7.950;2022-07-12T02:18:36;2.05;;;1.50;;
55031;SDS011;40928;51.076;7.950;2022-07-12T02:21:01;2.17;;;1.20;;
55031;SDS011;40928;51.076;7.950;2022-07-12T02:23:27;2.00;;;1.27;;
55031;SDS011;40928;51.076;7.950;2022-07-12T02:25:53;4.05;;;1.48;;
55031;SDS011;40928;51.076;7.950;2022-07-12T02:28:18;2.25;;;1.60;;
55031;SDS011;40928;51.076;7.950;2022-07-12T02:30:44;1.95;;;1.48;;
55031;SDS011;40928;51.076;7.950;2022-07-12T02:33:09;1.15;;;1.02;;
55031;SDS011;40928;51.076;7.950;2022-07-12T02:35:35;4.35;;;1.30;;
55031;SDS011;40928;51.076;7.950;2022-07-12T02:38:01;1.40;;;1.20;;
55031;SDS011;40928;51.076;7.950;2022-07-12T02:40:26;1.42;;;1.30;;
55031;SDS011;40928;51.076;7.950;2022-07-12T02:43:11;4.03;;;1.20;;
55031;SDS011;40928;51.076;7.950;2022-07-12T02:45:36;1.60;;;1.20;;
55031;SDS011;40928;51.076;7.950;2022-07-12T02:48:02;2.85;;;1.30;;
55031;SDS011;40928;51.076;7.950;2022-07-12T02:50:27;1.73;;;1.25;;
55031;SDS011;40928;51.076;7.950;2022-07-12T02:52:53;2.78;;;1.13;;
55031;SDS011;40928;51.076;7.950;2022-07-12T02:55:18;1.63;;;0.85;;
55031;SDS011;40928;51.076;7.950;2022-07-12T02:57:44;1.02;;;0.88;;
55031;SDS011;40928;51.076;7.950;2022-07-12T03:00:09;1.48;;;1.15;;
55031;SDS011;40928;51.076;7.950;2022-07-12T03:02:36;1.17;;;0.98;;
55031;SDS011;40928;51.076;7.950;2022-07-12T03:05:02;3.78;;;1.00;;
55031;SDS011;40928;51.076;7.950;2022-07-12T03:07:27;2.50;;;1.10;;
55031;SDS011;40928;51.076;7.950;2022-07-12T03:09:53;1.90;;;1.20;;
55031;SDS011;40928;51.076;7.950;2022-07-12T03:12:18;4.30;;;1.30;;
55031;SDS011;40928;51.076;7.950;2022-07-12T03:14:44;1.20;;;0.95;;
55031;SDS011;40928;51.076;7.950;2022-07-12T03:17:10;2.95;;;1.33;;
55031;SDS011;40928;51.076;7.950;2022-07-12T03:19:35;1.83;;;0.90;;
55031;SDS011;40928;51.076;7.950;2022-07-12T03:22:01;4.80;;;1.58;;
55031;SDS011;40928;51.076;7.950;2022-07-12T03:24:27;1.85;;;1.20;;
55031;SDS011;40928;51.076;7.950;2022-07-12T03:26:52;3.40;;;1.55;;
55031;SDS011;40928;51.076;7.950;2022-07-12T03:29:17;2.97;;;1.00;;
55031;SDS011;40928;51.076;7.950;2022-07-12T03:31:43;3.70;;;1.73;;
55031;SDS011;40928;51.076;7.950;2022-07-12T03:34:08;1.52;;;1.25;;
55031;SDS011;40928;51.076;7.950;2022-07-12T03:36:34;3.58;;;1.45;;
55031;SDS011;40928;51.076;7.950;2022-07-12T03:39:00;1.40;;;1.02;;
55031;SDS011;40928;51.076;7.950;2022-07-12T03:41:25;1.60;;;1.20;;
55031;SDS011;40928;51.076;7.950;2022-07-12T03:43:51;2.20;;;1.20;;
55031;SDS011;40928;51.076;7.950;2022-07-12T03:46:16;5.20;;;1.25;;
55031;SDS011;40928;51.076;7.950;2022-07-12T03:48:42;2.95;;;1.60;;
55031;SDS011;40928;51.076;7.950;2022-07-12T03:51:07;1.45;;;1.20;;
55031;SDS011;40928;51.076;7.950;2022-07-12T03:53:33;1.95;;;1.00;;
55031;SDS011;40928;51.076;7.950;2022-07-12T03:55:58;4.72;;;1.60;;
55031;SDS011;40928;51.076;7.950;2022-07-12T03:58:24;2.17;;;1.50;;
55031;SDS011;40928;51.076;7.950;2022-07-12T04:00:49;2.38;;;1.67;;
55031;SDS011;40928;51.076;7.950;2022-07-12T04:03:15;4.60;;;2.58;;
55031;SDS011;40928;51.076;7.950;2022-07-12T04:05:40;7.70;;;2.92;;
55031;SDS011;40928;51.076;7.950;2022-07-12T04:08:06;11.85;;;4.03;;
55031;SDS011;40928;51.076;7.950;2022-07-12T04:10:31;3.65;;;2.38;;
55031;SDS011;40928;51.076;7.950;2022-07-12T04:12:57;3.28;;;2.35;;
55031;SDS011;40928;51.076;7.950;2022-07-12T04:15:22;3.63;;;2.53;;
55031;SDS011;40928;51.076;7.950;2022-07-12T04:17:48;6.20;;;2.50;;
55031;SDS011;40928;51.076;7.950;2022-07-12T04:20:13;4.63;;;3.00;;
55031;SDS011;40928;51.076;7.950;2022-07-12T04:22:39;3.55;;;2.08;;
55031;SDS011;40928;51.076;7.950;2022-07-12T04:25:06;3.78;;;2.28;;
55031;SDS011;40928;51.076;7.950;2022-07-12T04:27:32;3.97;;;2.67;;
55031;SDS011;40928;51.076;7.950;2022-07-12T04:29:58;3.10;;;2.45;;
55031;SDS011;40928;51.076;7.950;2022-07-12T04:32:23;2.50;;;1.90;;
55031;SDS011;40928;51.076;7.950;2022-07-12T04:34:49;3.65;;;2.05;;
55031;SDS011;40928;51.076;7.950;2022-07-12T04:37:21;3.80;;;2.05;;
55031;SDS011;40928;51.076;7.950;2022-07-12T04:39:47;2.55;;;1.85;;
55031;SDS011;40928;51.076;7.950;2022-07-12T04:42:12;2.55;;;2.08;;
55031;SDS011;40928;51.076;7.950;2022-07-12T04:44:38;3.03;;;2.10;;
55031;SDS011;40928;51.076;7.950;2022-07-12T04:47:03;2.78;;;2.45;;
55031;SDS011;40928;51.076;7.950;2022-07-12T04:49:31;3.53;;;2.70;;
55031;SDS011;40928;51.076;7.950;2022-07-12T04:51:57;3.22;;;2.45;;
55031;SDS011;40928;51.076;7.950;2022-07-12T04:54:23;3.85;;;2.05;;
55031;SDS011;40928;51.076;7.950;2022-07-12T04:56:48;2.92;;;2.03;;
55031;SDS011;40928;51.076;7.950;2022-07-12T04:59:14;1.92;;;1.70;;
55031;SDS011;40928;51.076;7.950;2022-07-12T05:01:39;4.90;;;3.00;;
55031;SDS011;40928;51.076;7.950;2022-07-12T05:04:05;4.45;;;2.00;;
55031;SDS011;40928;51.076;7.950;2022-07-12T05:06:31;2.90;;;1.75;;
55031;SDS011;40928;51.076;7.950;2022-07-12T05:08:56;3.03;;;1.80;;
55031;SDS011;40928;51.076;7.950;2022-07-12T05:11:23;3.85;;;1.73;;
55031;SDS011;40928;51.076;7.950;2022-07-12T05:13:49;2.15;;;1.77;;
55031;SDS011;40928;51.076;7.950;2022-07-12T05:16:14;3.00;;;2.22;;
55031;SDS011;40928;51.076;7.950;2022-07-12T05:18:42;3.55;;;1.52;;
55031;SDS011;40928;51.076;7.950;2022-07-12T05:21:08;2.55;;;1.42;;
55031;SDS011;40928;51.076;7.950;2022-07-12T05:23:34;2.10;;;1.30;;
55031;SDS011;40928;51.076;7.950;2022-07-12T05:26:00;2.90;;;1.67;;
55031;SDS011;40928;51.076;7.950;2022-07-12T05:28:26;3.55;;;1.70;;
55031;SDS011;40928;51.076;7.950;2022-07-12T05:30:52;2.30;;;1.73;;
55031;SDS011;40928;51.076;7.950;2022-07-12T05:33:17;2.17;;;1.65;;
55031;SDS011;40928;51.076;7.950;2022-07-12T05:35:43;2.40;;;1.20;;
55031;SDS011;40928;51.076;7.950;2022-07-12T05:38:08;4.28;;;1.92;;
55031;SDS011;40928;51.076;7.950;2022-07-12T05:40:34;3.17;;;1.70;;
55031;SDS011;40928;51.076;7.950;2022-07-12T05:42:59;3.10;;;1.52;;
55031;SDS011;40928;51.076;7.950;2022-07-12T05:45:25;1.67;;;1.13;;
55031;SDS011;40928;51.076;7.950;2022-07-12T05:47:51;3.00;;;1.48;;
55031;SDS011;40928;51.076;7.950;2022-07-12T05:50:16;2.28;;;1.67;;
55031;SDS011;40928;51.076;7.950;2022-07-12T05:52:42;2.28;;;1.67;;
55031;SDS011;40928;51.076;7.950;2022-07-12T05:55:26;2.22;;;1.38;;
55031;SDS011;40928;51.076;7.950;2022-07-12T05:57:51;3.13;;;2.15;;
55031;SDS011;40928;51.076;7.950;2022-07-12T06:00:17;2.80;;;1.88;;
55031;SDS011;40928;51.076;7.950;2022-07-12T06:02:42;2.03;;;1.60;;
55031;SDS011;40928;51.076;7.950;2022-07-12T06:05:07;3.58;;;1.50;;
55031;SDS011;40928;51.076;7.950;2022-07-12T06:07:34;1.88;;;1.48;;
55031;SDS011;40928;51.076;7.950;2022-07-12T06:09:59;1.63;;;1.50;;
55031;SDS011;40928;51.076;7.950;2022-07-12T06:12:25;2.78;;;2.00;;
55031;SDS011;40928;51.076;7.950;2022-07-12T06:14:51;2.35;;;1.30;;
55031;SDS011;40928;51.076;7.950;2022-07-12T06:17:16;2.42;;;1.75;;
55031;SDS011;40928;51.076;7.950;2022-07-12T06:19:46;2.85;;;1.75;;
55031;SDS011;40928;51.076;7.950;2022-07-12T06:22:12;5.35;;;2.10;;
55031;SDS011;40928;51.076;7.950;2022-07-12T06:24:37;2.78;;;2.25;;
55031;SDS011;40928;51.076;7.950;2022-07-12T06:27:03;5.43;;;3.10;;
55031;SDS011;40928;51.076;7.950;2022-07-12T06:29:30;2.80;;;2.40;;
55031;SDS011;40928;51.076;7.950;2022-07-12T06:31:55;4.32;;;2.60;;
55031;SDS011;40928;51.076;7.950;2022-07-12T06:34:21;2.35;;;1.98;;
55031;SDS011;40928;51.076;7.950;2022-07-12T06:36:47;3.08;;;2.50;;
55031;SDS011;40928;51.076;7.950;2022-07-12T06:39:12;3.47;;;2.28;;
55031;SDS011;40928;51.076;7.950;2022-07-12T06:41:38;2.47;;;2.10;;
55031;SDS011;40928;51.076;7.950;2022-07-12T06:44:04;3.00;;;2.70;;
55031;SDS011;40928;51.076;7.950;2022-07-12T06:46:29;4.28;;;3.78;;
55031;SDS011;40928;51.076;7.950;2022-07-12T06:48:55;3.83;;;3.33;;
55031;SDS011;40928;51.076;7.950;2022-07-12T06:51:20;4.32;;;3.03;;
55031;SDS011;40928;51.076;7.950;2022-07-12T06:53:46;6.20;;;3.80;;
55031;SDS011;40928;51.076;7.950;2022-07-12T06:56:11;7.03;;;3.58;;
55031;SDS011;40928;51.076;7.950;2022-07-12T06:58:36;4.43;;;3.47;;
55031;SDS011;40928;51.076;7.950;2022-07-12T07:01:02;12.68;;;8.35;;
55031;SDS011;40928;51.076;7.950;2022-07-12T07:03:28;8.13;;;3.97;;
55031;SDS011;40928;51.076;7.950;2022-07-12T07:05:53;4.22;;;3.30;;
55031;SDS011;40928;51.076;7.950;2022-07-12T07:08:18;2.80;;;2.10;;
55031;SDS011;40928;51.076;7.950;2022-07-12T07:10:44;2.33;;;1.80;;
55031;SDS011;40928;51.076;7.950;2022-07-12T07:13:12;3.53;;;2.25;;
55031;SDS011;40928;51.076;7.950;2022-07-12T07:15:41;2.42;;;2.22;;
55031;SDS011;40928;51.076;7.950;2022-07-12T07:18:07;4.20;;;1.73;;
55031;SDS011;40928;51.076;7.950;2022-07-12T07:20:33;1.63;;;1.40;;
55031;SDS011;40928;51.076;7.950;2022-07-12T07:22:59;3.72;;;1.58;;
55031;SDS011;40928;51.076;7.950;2022-07-12T07:25:25;1.95;;;1.63;;
55031;SDS011;40928;51.076;7.950;2022-07-12T07:27:50;1.40;;;1.02;;
55031;SDS011;40928;51.076;7.950;2022-07-12T07:30:16;1.40;;;1.00;;
55031;SDS011;40928;51.076;7.950;2022-07-12T07:33:00;2.28;;;1.17;;
55031;SDS011;40928;51.076;7.950;2022-07-12T07:35:25;1.20;;;1.10;;
55031;SDS011;40928;51.076;7.950;2022-07-12T07:37:51;1.60;;;1.15;;
55031;SDS011;40928;51.076;7.950;2022-07-12T07:40:17;1.45;;;1.10;;
55031;SDS011;40928;51.076;7.950;2022-07-12T07:42:43;1.30;;;1.20;;
55031;SDS011;40928;51.076;7.950;2022-07-12T07:45:08;2.03;;;0.85;;
55031;SDS011;40928;51.076;7.950;2022-07-12T07:47:45;0.73;;;0.57;;
55031;SDS011;40928;51.076;7.950;2022-07-12T07:50:13;1.27;;;0.80;;
55031;SDS011;40928;51.076;7.950;2022-07-12T07:52:38;1.40;;;0.82;;
55031;SDS011;40928;51.076;7.950;2022-07-12T07:55:04;2.50;;;1.55;;
55031;SDS011;40928;51.076;7.950;2022-07-12T07:57:30;1.73;;;1.27;;
55031;SDS011;40928;51.076;7.950;2022-07-12T07:59:56;1.23;;;1.05;;
55031;SDS011;40928;51.076;7.950;2022-07-12T08:02:21;0.98;;;0.60;;
55031;SDS011;40928;51.076;7.950;2022-07-12T08:04:46;1.23;;;0.60;;
55031;SDS011;40928;51.076;7.950;2022-07-12T08:07:12;3.67;;;0.82;;
55031;SDS011;40928;51.076;7.950;2022-07-12T08:09:38;1.27;;;0.70;;
55031;SDS011;40928;51.076;7.950;2022-07-12T08:12:04;4.22;;;0.85;;
55031;SDS011;40928;51.076;7.950;2022-07-12T08:14:30;0.40;;;0.35;;
55031;SDS011;40928;51.076;7.950;2022-07-12T08:16:55;2.60;;;0.50;;
55031;SDS011;40928;51.076;7.950;2022-07-12T08:19:21;1.20;;;0.40;;
55031;SDS011;40928;51.076;7.950;2022-07-12T08:21:47;0.82;;;0.50;;
55031;SDS011;40928;51.076;7.950;2022-07-12T08:24:12;0.50;;;0.40;;
55031;SDS011;40928;51.076;7.950;2022-07-12T08:26:38;0.43;;;0.40;;
55031;SDS011;40928;51.076;7.950;2022-07-12T08:29:05;0.95;;;0.40;;
55031;SDS011;40928;51.076;7.950;2022-07-12T08:31:30;0.30;;;0.20;;
55031;SDS011;40928;51.076;7.950;2022-07-12T08:33:56;0.10;;;0.10;;
55031;SDS011;40928;51.076;7.950;2022-07-12T08:36:22;0.32;;;0.30;;
55031;SDS011;40928;51.076;7.950;2022-07-12T08:38:47;0.28;;;0.20;;
55031;SDS011;40928;51.076;7.950;2022-07-12T08:41:13;0.25;;;0.20;;
55031;SDS011;40928;51.076;7.950;2022-07-12T08:43:40;1.48;;;0.43;;
55031;SDS011;40928;51.076;7.950;2022-07-12T08:46:06;0.32;;;0.25;;
55031;SDS011;40928;51.076;7.950;2022-07-12T08:48:37;0.10;;;0.10;;
55031;SDS011;40928;51.076;7.950;2022-07-12T08:51:04;0.20;;;0.13;;
55031;SDS011;40928;51.076;7.950;2022-07-12T08:53:33;1.02;;;0.30;;
55031;SDS011;40928;51.076;7.950;2022-07-12T08:56:00;0.47;;;0.13;;
55031;SDS011;40928;51.076;7.950;2022-07-12T08:58:29;0.40;;;0.22;;
55031;SDS011;40928;51.076;7.950;2022-07-12T09:00:55;0.68;;;0.30;;
55031;SDS011;40928;51.076;7.950;2022-07-12T09:03:21;0.22;;;0.20;;
55031;SDS011;40928;51.076;7.950;2022-07-12T09:05:56;3.20;;;0.22;;
55031;SDS011;40928;51.076;7.950;2022-07-12T09:08:27;0.35;;;0.15;;
55031;SDS011;40928;51.076;7.950;2022-07-12T09:11:02;1.08;;;0.22;;
55031;SDS011;40928;51.076;7.950;2022-07-12T09:16:14;0.85;;;0.10;;
55031;SDS011;40928;51.076;7.950;2022-07-12T09:18:42;0.15;;;0.13;;
55031;SDS011;40928;51.076;7.950;2022-07-12T09:21:09;0.43;;;0.40;;
55031;SDS011;40928;51.076;7.950;2022-07-12T09:23:35;1.05;;;0.20;;
55031;SDS011;40928;51.076;7.950;2022-07-12T09:26:01;0.60;;;0.20;;
55031;SDS011;40928;51.076;7.950;2022-07-12T09:28:33;1.15;;;0.20;;
55031;SDS011;40928;51.076;7.950;2022-07-12T09:30:58;0.80;;;0.30;;
55031;SDS011;40928;51.076;7.950;2022-07-12T09:33:24;1.15;;;0.20;;
55031;SDS011;40928;51.076;7.950;2022-07-12T09:36:11;0.77;;;0.10;;
55031;SDS011;40928;51.076;7.950;2022-07-12T09:38:53;0.30;;;0.20;;
55031;SDS011;40928;51.076;7.950;2022-07-12T09:41:20;0.40;;;0.20;;
55031;SDS011;40928;51.076;7.950;2022-07-12T09:43:47;1.85;;;0.20;;
55031;SDS011;40928;51.076;7.950;2022-07-12T09:46:16;1.20;;;0.30;;
55031;SDS011;40928;51.076;7.950;2022-07-12T09:48:43;0.73;;;0.20;;
55031;SDS011;40928;51.076;7.950;2022-07-12T09:51:10;0.10;;;0.10;;
55031;SDS011;40928;51.076;7.950;2022-07-12T09:53:46;0.50;;;0.30;;
55031;SDS011;40928;51.076;7.950;2022-07-12T09:56:13;0.25;;;0.22;;
55031;SDS011;40928;51.076;7.950;2022-07-12T09:58:49;0.40;;;0.30;;
55031;SDS011;40928;51.076;7.950;2022-07-12T10:01:16;0.70;;;0.20;;
55031;SDS011;40928;51.076;7.950;2022-07-12T10:03:43;0.38;;;0.20;;
55031;SDS011;40928;51.076;7.950;2022-07-12T10:06:09;1.10;;;0.20;;
55031;SDS011;40928;51.076;7.950;2022-07-12T10:08:37;0.90;;;0.20;;
55031;SDS011;40928;51.076;7.950;2022-07-12T10:11:02;0.50;;;0.30;;
55031;SDS011;40928;51.076;7.950;2022-07-12T10:13:28;0.50;;;0.20;;
55031;SDS011;40928;51.076;7.950;2022-07-12T10:16:00;0.20;;;0.20;;
55031;SDS011;40928;51.076;7.950;2022-07-12T10:18:27;1.05;;;0.30;;
55031;SDS011;40928;51.076;7.950;2022-07-12T10:20:54;0.40;;;0.20;;
55031;SDS011;40928;51.076;7.950;2022-07-12T10:25:51;0.38;;;0.20;;
55031;SDS011;40928;51.076;7.950;2022-07-12T10:28:17;0.88;;;0.20;;
55031;SDS011;40928;51.076;7.950;2022-07-12T10:30:43;0.55;;;0.30;;
55031;SDS011;40928;51.076;7.950;2022-07-12T10:33:14;0.25;;;0.20;;
55031;SDS011;40928;51.076;7.950;2022-07-12T10:38:33;0.10;;;0.10;;
55031;SDS011;40928;51.076;7.950;2022-07-12T10:41:18;0.68;;;0.30;;
55031;SDS011;40928;51.076;7.950;2022-07-12T10:43:45;1.13;;;0.20;;
55031;SDS011;40928;51.076;7.950;2022-07-12T10:46:29;2.25;;;0.20;;
55031;SDS011;40928;51.076;7.950;2022-07-12T10:52:27;2.08;;;0.20;;
55031;SDS011;40928;51.076;7.950;2022-07-12T11:00:05;0.15;;;0.10;;
55031;SDS011;40928;51.076;7.950;2022-07-12T11:02:33;0.20;;;0.17;;
55031;SDS011;40928;51.076;7.950;2022-07-12T11:05:00;4.43;;;0.30;;
55031;SDS011;40928;51.076;7.950;2022-07-12T11:07:26;0.28;;;0.20;;
55031;SDS011;40928;51.076;7.950;2022-07-12T11:09:53;2.33;;;0.20;;
55031;SDS011;40928;51.076;7.950;2022-07-12T11:12:19;1.33;;;0.30;;
55031;SDS011;40928;51.076;7.950;2022-07-12T11:14:45;1.15;;;0.20;;
55031;SDS011;40928;51.076;7.950;2022-07-12T11:17:11;17.95;;;1.20;;
55031;SDS011;40928;51.076;7.950;2022-07-12T11:19:37;8.88;;;1.02;;
55031;SDS011;40928;51.076;7.950;2022-07-12T11:22:03;0.47;;;0.30;;
55031;SDS011;40928;51.076;7.950;2022-07-12T11:24:33;0.35;;;0.10;;
55031;SDS011;40928;51.076;7.950;2022-07-12T11:27:03;0.52;;;0.10;;
55031;SDS011;40928;51.076;7.950;2022-07-12T11:29:30;1.65;;;0.13;;
55031;SDS011;40928;51.076;7.950;2022-07-12T11:32:00;0.55;;;0.20;;
55031;SDS011;40928;51.076;7.950;2022-07-12T11:34:28;0.77;;;0.10;;
55031;SDS011;40928;51.076;7.950;2022-07-12T11:36:55;0.68;;;0.20;;
55031;SDS011;40928;51.076;7.950;2022-07-12T11:39:35;0.65;;;0.10;;
55031;SDS011;40928;51.076;7.950;2022-07-12T11:42:01;2.60;;;0.10;;
55031;SDS011;40928;51.076;7.950;2022-07-12T11:44:45;0.20;;;0.10;;
55031;SDS011;40928;51.076;7.950;2022-07-12T11:47:11;0.10;;;0.10;;
55031;SDS011;40928;51.076;7.950;2022-07-12T11:49:41;0.63;;;0.10;;
55031;SDS011;40928;51.076;7.950;2022-07-12T11:52:11;1.02;;;0.30;;
55031;SDS011;40928;51.076;7.950;2022-07-12T11:54:37;0.52;;;0.20;;
55031;SDS011;40928;51.076;7.950;2022-07-12T11:57:10;0.30;;;0.10;;
55031;SDS011;40928;51.076;7.950;2022-07-12T11:59:37;0.38;;;0.30;;
55031;SDS011;40928;51.076;7.950;2022-07-12T12:02:10;0.52;;;0.20;;
55031;SDS011;40928;51.076;7.950;2022-07-12T12:04:50;0.10;;;0.10;;
55031;SDS011;40928;51.076;7.950;2022-07-12T12:07:17;0.38;;;0.10;;
55031;SDS011;40928;51.076;7.950;2022-07-12T12:15:15;1.50;;;0.20;;
55031;SDS011;40928;51.076;7.950;2022-07-12T12:20:20;2.10;;;0.20;;
55031;SDS011;40928;51.076;7.950;2022-07-12T12:22:48;0.30;;;0.20;;
55031;SDS011;40928;51.076;7.950;2022-07-12T12:25:18;0.47;;;0.20;;
55031;SDS011;40928;51.076;7.950;2022-07-12T12:27:45;0.90;;;0.10;;
55031;SDS011;40928;51.076;7.950;2022-07-12T12:30:13;0.17;;;0.10;;
55031;SDS011;40928;51.076;7.950;2022-07-12T12:32:48;0.20;;;0.10;;
55031;SDS011;40928;51.076;7.950;2022-07-12T12:35:32;4.57;;;0.20;;
55031;SDS011;40928;51.076;7.950;2022-07-12T12:38:03;2.28;;;0.10;;
55031;SDS011;40928;51.076;7.950;2022-07-12T12:40:35;0.63;;;0.10;;
55031;SDS011;40928;51.076;7.950;2022-07-12T12:43:12;0.10;;;0.00;;
55031;SDS011;40928;51.076;7.950;2022-07-12T12:45:49;0.43;;;0.10;;
55031;SDS011;40928;51.076;7.950;2022-07-12T12:48:19;0.47;;;0.20;;
55031;SDS011;40928;51.076;7.950;2022-07-12T12:50:53;0.13;;;0.10;;
55031;SDS011;40928;51.076;7.950;2022-07-12T12:53:21;0.10;;;0.10;;
55031;SDS011;40928;51.076;7.950;2022-07-12T12:55:49;0.40;;;0.10;;
55031;SDS011;40928;51.076;7.950;2022-07-12T12:58:17;1.55;;;0.10;;
55031;SDS011;40928;51.076;7.950;2022-07-12T13:00:45;0.10;;;0.05;;
55031;SDS011;40928;51.076;7.950;2022-07-12T13:03:12;0.52;;;0.10;;
55031;SDS011;40928;51.076;7.950;2022-07-12T13:05:40;0.70;;;0.10;;
55031;SDS011;40928;51.076;7.950;2022-07-12T13:08:07;0.32;;;0.30;;
55031;SDS011;40928;51.076;7.950;2022-07-12T13:10:33;1.65;;;0.08;;
55031;SDS011;40928;51.076;7.950;2022-07-12T13:13:00;0.13;;;0.10;;
55031;SDS011;40928;51.076;7.950;2022-07-12T13:15:28;0.50;;;0.10;;
55031;SDS011;40928;51.076;7.950;2022-07-12T13:17:54;0.38;;;0.20;;
55031;SDS011;40928;51.076;7.950;2022-07-12T13:20:21;0.93;;;0.30;;
55031;SDS011;40928;51.076;7.950;2022-07-12T13:22:48;0.20;;;0.10;;
55031;SDS011;40928;51.076;7.950;2022-07-12T13:25:14;0.40;;;0.10;;
55031;SDS011;40928;51.076;7.950;2022-07-12T13:27:40;0.57;;;0.20;;
55031;SDS011;40928;51.076;7.950;2022-07-12T13:30:07;0.52;;;0.10;;
55031;SDS011;40928;51.076;7.950;2022-07-12T13:32:35;0.22;;;0.10;;
55031;SDS011;40928;51.076;7.950;2022-07-12T13:35:01;2.25;;;0.10;;
55031;SDS011;40928;51.076;7.950;2022-07-12T13:37:28;2.85;;;0.30;;
55031;SDS011;40928;51.076;7.950;2022-07-12T13:39:54;1.08;;;0.20;;
55031;SDS011;40928;51.076;7.950;2022-07-12T13:42:38;0.55;;;0.05;;
55031;SDS011;40928;51.076;7.950;2022-07-12T13:45:09;0.57;;;0.20;;
55031;SDS011;40928;51.076;7.950;2022-07-12T13:47:36;0.45;;;0.20;;
55031;SDS011;40928;51.076;7.950;2022-07-12T13:50:02;0.30;;;0.20;;
55031;SDS011;40928;51.076;7.950;2022-07-12T13:52:28;0.45;;;0.38;;
55031;SDS011;40928;51.076;7.950;2022-07-12T13:54:53;0.00;;;0.00;;
55031;SDS011;40928;51.076;7.950;2022-07-12T13:57:19;0.10;;;0.05;;
55031;SDS011;40928;51.076;7.950;2022-07-12T13:59:45;0.47;;;0.10;;
55031;SDS011;40928;51.076;7.950;2022-07-12T14:02:10;0.10;;;0.10;;
55031;SDS011;40928;51.076;7.950;2022-07-12T14:04:38;0.70;;;0.10;;
55031;SDS011;40928;51.076;7.950;2022-07-12T14:07:03;1.08;;;0.17;;
55031;SDS011;40928;51.076;7.950;2022-07-12T14:09:29;1.20;;;0.10;;
55031;SDS011;40928;51.076;7.950;2022-07-12T14:11:54;0.03;;;0.03;;
55031;SDS011;40928;51.076;7.950;2022-07-12T14:14:20;3.60;;;0.20;;
55031;SDS011;40928;51.076;7.950;2022-07-12T14:17:11;0.68;;;0.15;;
55031;SDS011;40928;51.076;7.950;2022-07-12T14:19:37;1.60;;;0.20;;
55031;SDS011;40928;51.076;7.950;2022-07-12T14:22:02;0.10;;;0.00;;
55031;SDS011;40928;51.076;7.950;2022-07-12T14:24:28;0.05;;;0.00;;
55031;SDS011;40928;51.076;7.950;2022-07-12T14:26:54;0.43;;;0.17;;
55031;SDS011;40928;51.076;7.950;2022-07-12T14:29:19;0.57;;;0.10;;
55031;SDS011;40928;51.076;7.950;2022-07-12T14:31:45;1.25;;;0.10;;
55031;SDS011;40928;51.076;7.950;2022-07-12T14:34:11;0.32;;;0.10;;
55031;SDS011;40928;51.076;7.950;2022-07-12T14:36:37;0.30;;;0.20;;
55031;SDS011;40928;51.076;7.950;2022-07-12T14:39:02;1.92;;;0.10;;
55031;SDS011;40928;51.076;7.950;2022-07-12T14:41:28;1.77;;;0.20;;
55031;SDS011;40928;51.076;7.950;2022-07-12T14:43:55;0.25;;;0.20;;
55031;SDS011;40928;51.076;7.950;2022-07-12T14:46:21;0.32;;;0.20;;
55031;SDS011;40928;51.076;7.950;2022-07-12T14:48:47;0.60;;;0.10;;
55031;SDS011;40928;51.076;7.950;2022-07-12T14:51:12;0.10;;;0.10;;
55031;SDS011;40928;51.076;7.950;2022-07-12T14:53:38;0.55;;;0.13;;
55031;SDS011;40928;51.076;7.950;2022-07-12T14:56:04;0.13;;;0.10;;
55031;SDS011;40928;51.076;7.950;2022-07-12T14:58:30;0.52;;;0.10;;
55031;SDS011;40928;51.076;7.950;2022-07-12T15:00:55;0.30;;;0.15;;
55031;SDS011;40928;51.076;7.950;2022-07-12T15:03:21;5.93;;;0.30;;
55031;SDS011;40928;51.076;7.950;2022-07-12T15:05:47;0.32;;;0.20;;
55031;SDS011;40928;51.076;7.950;2022-07-12T15:08:12;1.13;;;0.20;;
55031;SDS011;40928;51.076;7.950;2022-07-12T15:10:38;2.47;;;0.13;;
55031;SDS011;40928;51.076;7.950;2022-07-12T15:13:04;0.10;;;0.10;;